Vremea acum in Cajvana - Romania

Vrei sa afli care e starea vremii acum in Suceava - Romania? Dorim sa iti furnizam starea vremii pentru Suceava - Romania. Starea vremii Suceava - Romania pentru astazi.

Vremea acum in Cajvana

Temperatura: 14.1 °C

Este: Senin
Se simte ca: 14.1 °C
Innorat: 0 %
Precipitatii: 0 %
Presiune atmosferica: 1015 hPa
Umiditate: 51%
Vizibilitate: 10 km
Vantul bate din WSW cu 6.5 km/h

Evolutia vremii in Cajvana pe ore

Ora: 04:00
Senin
Temperatura: 11°C
Sansa de precipitatii: 0%
Ora Descriere Temp Se simte Precipitatii Umiditate Vant
00:00Senin12.8°12.7°0%62%WSW 5.8 KM/H
01:00Senin12.3°12.1°0%63%WSW 6.1 KM/H
02:00Senin14.1°11.5°0%51%WSW 6.5 KM/H
03:00Senin11.4°11°0%66%WSW 6.5 KM/H
04:00Senin11°10.5°0%66%WSW 6.5 KM/H
05:00Senin10.7°10.2°0%67%WSW 6.1 KM/H
06:00Senin10.5°10°0%67%WSW 6.1 KM/H
07:00Senin11.8°11.7°0%68%WSW 5.8 KM/H
08:00Senin14.6°14.9°0%61%SW 5 KM/H
09:00Senin16.9°16.9°0%55%SW 5 KM/H
10:00Senin19.3°19.3°0%49%SSW 4.7 KM/H
11:00Senin21°21°0%43%SSE 6.8 KM/H
12:00Senin22°23.9°0%37%SSE 9.7 KM/H
13:00Senin22.6°23.9°0%35%SE 10.4 KM/H
14:00Senin22.9°24°0%34%SE 10.8 KM/H
15:00Senin23.1°24°0%34%SE 11.2 KM/H
16:00Senin23.1°24°0%34%SE 10.8 KM/H
17:00Senin22.8°24°0%36%SE 12.6 KM/H
18:00Senin22°22°0%45%SE 14.4 KM/H
19:00Senin20.2°20.2°0%57%SE 11.2 KM/H
20:00Senin17.5°17.5°0%63%SSE 10.1 KM/H
21:00Senin15.7°15.7°0%63%SSE 10.4 KM/H
22:00Senin14.7°14.3°0%63%S 9.7 KM/H
23:00Senin13.9°13.7°0%63%SSW 7.6 KM/H




tutorials